Time;durP1;ratioP1;P1;durP2;ratioP2;P2;SDS_P1;SDS_P2;PMS_P1;PMS_P2;Temp;Humidity;BMP_temperature;BMP_pressure;BME280_temperature;BME280_humidity;BME280_pressure;Samples;Min_cycle;Max_cycle;Signal;HPM_P1;HPM_P2
2022/01/24 00:00:31;;;;;;;;;;;4.40;99.90;;;;;;5115878;28;19975;-85
2022/01/24 00:02:58;;;;;;;;;;;4.50;99.90;;;;;;5116054;28;20015;-84
2022/01/24 00:05:25;;;;;;;;;;;4.40;99.90;;;;;;5115899;28;19923;-85
2022/01/24 00:07:52;;;;;;;;;;;4.40;99.90;;;;;;5115674;28;19970;-85
2022/01/24 00:10:22;;;;;;;;;;;4.60;99.90;;;;;;5115496;28;19978;-85
2022/01/24 00:13:00;;;;;;;;;;;4.50;99.90;;;;;;5115870;28;19924;-85
2022/01/24 00:15:49;;;;;;;;;;;4.50;99.90;;;;;;5115419;28;19935;-85
2022/01/24 00:18:27;;;;;;;;;;;4.60;99.90;;;;;;5114892;28;19923;-85
2022/01/24 00:26:45;;;;;;;;;;;4.70;99.90;;;;;;5114690;28;19986;-86
2022/01/24 00:29:12;;;;;;;;;;;4.90;99.90;;;;;;5115010;28;19982;-85
2022/01/24 00:31:39;;;;;;;;;;;4.90;99.90;;;;;;5115249;28;20446;-84
2022/01/24 00:34:07;;;;;;;;;;;4.70;99.90;;;;;;5115839;28;19970;-84
2022/01/24 00:36:35;;;;;;;;;;;4.60;99.90;;;;;;5115259;28;19974;-84
2022/01/24 00:39:01;;;;;;;;;;;4.50;99.90;;;;;;5115626;28;20362;-84
2022/01/24 00:41:28;;;;;;;;;;;4.60;99.90;;;;;;5115122;28;20326;-85
2022/01/24 00:44:15;;;;;;;;;;;4.60;99.90;;;;;;5114672;28;19923;-85
2022/01/24 00:46:48;;;;;;;;;;;4.70;99.90;;;;;;5114885;28;19927;-85
2022/01/24 00:49:36;;;;;;;;;;;4.60;99.90;;;;;;5114841;28;19954;-85
2022/01/24 00:54:51;;;;;;;;;;;4.30;99.90;;;;;;5115105;28;19977;-84
2022/01/24 00:57:18;;;;;;;;;;;4.20;99.90;;;;;;5115311;28;19985;-84
2022/01/24 00:59:45;;;;;;;;;;;4.10;99.90;;;;;;5115040;28;20382;-84
2022/01/24 01:02:12;;;;;;;;;;;4.20;99.90;;;;;;5114805;28;19959;-84
2022/01/24 01:04:54;;;;;;;;;;;4.20;99.90;;;;;;5115169;28;19924;-85
2022/01/24 01:07:30;;;;;;;;;;;4.30;99.90;;;;;;5114914;28;19924;-84
2022/01/24 01:18:14;;;;;;;;;;;4.40;99.90;;;;;;5114730;28;19931;-85
2022/01/24 01:23:31;;;;;;;;;;;4.70;99.90;;;;;;5108028;28;19924;-85
2022/01/24 01:26:00;;;;;;;;;;;4.40;99.90;;;;;;5114777;28;19989;-84
2022/01/24 01:28:29;;;;;;;;;;;4.30;99.90;;;;;;5114956;28;19977;-85
2022/01/24 01:31:00;;;;;;;;;;;4.20;99.90;;;;;;5114788;28;20023;-84
2022/01/24 01:33:36;;;;;;;;;;;4.10;99.90;;;;;;5114817;28;19923;-84
2022/01/24 01:36:10;;;;;;;;;;;3.50;99.90;;;;;;5114903;28;20026;-84
2022/01/24 01:39:00;;;;;;;;;;;4.10;99.90;;;;;;5114531;28;20397;-84
2022/01/24 01:52:46;;;;;;;;;;;4.20;99.90;;;;;;5094129;28;20335;-84
2022/01/24 01:55:25;;;;;;;;;;;4.20;99.90;;;;;;5094850;28;19934;-85
2022/01/24 01:57:52;;;;;;;;;;;4.10;99.90;;;;;;5098034;28;19959;-84
2022/01/24 02:00:18;;;;;;;;;;;4.40;99.90;;;;;;5098138;28;19971;-85
2022/01/24 02:02:46;;;;;;;;;;;4.70;99.90;;;;;;5097804;28;19968;-84
2022/01/24 02:05:13;;;;;;;;;;;4.70;99.90;;;;;;5098144;28;19935;-84
2022/01/24 02:07:48;;;;;;;;;;;4.50;99.90;;;;;;5097921;28;19964;-85
2022/01/24 02:10:15;;;;;;;;;;;4.50;99.90;;;;;;5097831;28;19939;-85
2022/01/24 02:12:42;;;;;;;;;;;4.70;99.90;;;;;;5097699;28;19927;-84
2022/01/24 02:15:11;;;;;;;;;;;4.70;99.90;;;;;;5113488;28;19924;-84
2022/01/24 02:17:48;;;;;;;;;;;4.70;99.90;;;;;;5118234;28;19930;-84
2022/01/24 02:20:37;;;;;;;;;;;4.80;99.90;;;;;;5117827;28;20389;-84
2022/01/24 02:23:19;;;;;;;;;;;4.80;99.90;;;;;;5117503;28;19924;-85
2022/01/24 02:25:46;;;;;;;;;;;4.70;99.90;;;;;;5117966;28;19930;-84
2022/01/24 02:28:16;;;;;;;;;;;4.50;99.90;;;;;;5117756;28;19950;-85
2022/01/24 02:30:57;;;;;;;;;;;4.30;99.90;;;;;;5117581;28;19930;-85
2022/01/24 02:33:24;;;;;;;;;;;4.40;99.90;;;;;;5117836;28;19931;-85
2022/01/24 02:35:51;;;;;;;;;;;4.30;99.90;;;;;;5117613;28;19977;-84
2022/01/24 02:38:33;;;;;;;;;;;4.20;99.90;;;;;;5117827;28;19923;-85
2022/01/24 02:49:12;;;;;;;;;;;4.00;99.90;;;;;;5116959;28;20420;-85
2022/01/24 02:51:47;;;;;;;;;;;3.90;99.90;;;;;;5116603;28;19970;-85
2022/01/24 02:54:18;;;;;;;;;;;4.00;99.90;;;;;;5116708;28;19928;-85
2022/01/24 02:56:45;;;;;;;;;;;4.00;99.90;;;;;;5116603;28;19963;-85
2022/01/24 02:59:12;;;;;;;;;;;3.90;99.90;;;;;;5116381;28;20420;-85
2022/01/24 03:01:40;;;;;;;;;;;3.80;99.90;;;;;;5116201;28;19924;-85
2022/01/24 03:04:07;;;;;;;;;;;4.00;99.90;;;;;;5116307;28;19975;-85
2022/01/24 03:06:34;;;;;;;;;;;3.80;99.90;;;;;;5116222;28;19924;-85
2022/01/24 03:09:01;;;;;;;;;;;3.80;99.90;;;;;;5116824;28;20355;-85
2022/01/24 03:11:49;;;;;;;;;;;3.80;99.90;;;;;;5116971;28;19928;-85
2022/01/24 03:14:16;;;;;;;;;;;3.80;99.90;;;;;;5116425;28;20010;-85
2022/01/24 03:16:43;;;;;;;;;;;3.90;99.90;;;;;;5116550;28;19986;-85
2022/01/24 03:19:09;;;;;;;;;;;3.70;99.90;;;;;;5116667;28;19974;-86
2022/01/24 03:21:36;;;;;;;;;;;3.70;99.90;;;;;;5116843;28;19924;-85
2022/01/24 03:24:03;;;;;;;;;;;3.80;99.90;;;;;;5116793;28;19927;-84
2022/01/24 03:26:31;;;;;;;;;;;3.80;99.90;;;;;;5116442;28;19923;-85
2022/01/24 03:28:58;;;;;;;;;;;3.70;99.90;;;;;;5116588;28;20357;-85
2022/01/24 03:31:25;;;;;;;;;;;3.80;99.90;;;;;;5116514;28;19965;-85
2022/01/24 03:33:51;;;;;;;;;;;3.80;99.90;;;;;;5116513;28;19924;-85
2022/01/24 03:36:18;;;;;;;;;;;3.70;99.90;;;;;;5116380;28;19963;-85
2022/01/24 03:38:45;;;;;;;;;;;3.80;99.90;;;;;;5116442;28;19969;-85
2022/01/24 03:41:12;;;;;;;;;;;3.60;99.90;;;;;;5116028;28;20274;-85
2022/01/24 03:43:40;;;;;;;;;;;3.60;99.90;;;;;;5108457;28;19959;-85
2022/01/24 03:46:13;;;;;;;;;;;3.70;99.90;;;;;;5116151;28;19924;-85
2022/01/24 03:48:43;;;;;;;;;;;3.70;99.90;;;;;;5116299;28;19924;-85
2022/01/24 03:51:10;;;;;;;;;;;3.80;99.90;;;;;;5116397;28;19924;-84
2022/01/24 03:53:37;;;;;;;;;;;3.70;99.90;;;;;;5116042;28;19970;-85
2022/01/24 03:56:04;;;;;;;;;;;3.70;99.90;;;;;;5116336;28;19932;-85
2022/01/24 03:58:31;;;;;;;;;;;4.10;99.90;;;;;;5115787;28;19954;-85
2022/01/24 04:01:00;;;;;;;;;;;4.30;99.90;;;;;;5112153;28;19966;-85
2022/01/24 04:03:26;;;;;;;;;;;4.30;99.90;;;;;;5115758;28;20513;-85
2022/01/24 04:05:53;;;;;;;;;;;4.40;99.90;;;;;;5116032;28;19981;-86
2022/01/24 04:08:20;;;;;;;;;;;4.40;99.90;;;;;;5116015;28;19970;-85
2022/01/24 04:10:50;;;;;;;;;;;4.20;99.90;;;;;;5115909;28;19969;-85
2022/01/24 04:13:26;;;;;;;;;;;4.30;99.90;;;;;;5115749;28;19924;-85
2022/01/24 04:16:25;;;;;;;;;;;4.30;99.90;;;;;;5115810;28;19928;-85
2022/01/24 04:19:00;;;;;;;;;;;4.10;99.90;;;;;;5114916;28;19924;-85
2022/01/24 04:21:28;;;;;;;;;;;4.30;99.90;;;;;;5115688;28;19928;-85
2022/01/24 04:24:01;;;;;;;;;;;4.30;99.90;;;;;;5115408;28;19930;-85
2022/01/24 04:26:28;;;;;;;;;;;4.40;99.90;;;;;;5115694;28;19947;-85
2022/01/24 04:28:55;;;;;;;;;;;4.40;99.90;;;;;;5115494;28;19959;-85
2022/01/24 04:31:22;;;;;;;;;;;4.20;99.90;;;;;;5115484;28;19963;-85
2022/01/24 04:33:49;;;;;;;;;;;4.20;99.90;;;;;;5115696;28;19949;-86
2022/01/24 04:36:18;;;;;;;;;;;4.70;99.90;;;;;;5115584;28;19963;-86
2022/01/24 04:38:45;;;;;;;;;;;4.10;99.90;;;;;;5115893;28;19993;-86
2022/01/24 04:41:18;;;;;;;;;;;4.00;99.90;;;;;;5115255;28;19924;-86
2022/01/24 04:43:56;;;;;;;;;;;4.00;99.90;;;;;;5115365;28;20015;-85
2022/01/24 04:46:49;;;;;;;;;;;4.10;99.90;;;;;;5115018;28;19923;-85
2022/01/24 04:54:48;;;;;;;;;;;4.70;99.90;;;;;;5115022;28;19927;-86
2022/01/24 04:57:16;;;;;;;;;;;4.10;99.90;;;;;;5114935;28;20266;-86
2022/01/24 04:59:44;;;;;;;;;;;3.90;99.90;;;;;;5114932;28;19930;-86
2022/01/24 05:02:11;;;;;;;;;;;3.90;99.90;;;;;;5114903;28;20014;-86
2022/01/24 05:04:38;;;;;;;;;;;4.10;99.90;;;;;;5114791;28;19945;-86
2022/01/24 05:07:06;;;;;;;;;;;4.10;99.90;;;;;;5114874;28;19992;-86
2022/01/24 05:09:38;;;;;;;;;;;4.10;99.90;;;;;;5114854;28;19923;-86
2022/01/24 05:12:11;;;;;;;;;;;3.50;99.90;;;;;;5114817;28;19931;-85
2022/01/24 05:25:48;;;;;;;;;;;4.10;99.90;;;;;;5114216;28;19931;-85
2022/01/24 05:28:15;;;;;;;;;;;3.80;99.90;;;;;;5113845;28;20000;-85
2022/01/24 05:30:41;;;;;;;;;;;3.70;99.90;;;;;;5117518;28;19976;-86
2022/01/24 05:33:08;;;;;;;;;;;4.00;99.90;;;;;;5118529;28;19983;-85
2022/01/24 05:35:35;;;;;;;;;;;3.50;99.90;;;;;;5118918;28;19967;-85
2022/01/24 05:38:02;;;;;;;;;;;3.80;99.90;;;;;;5118486;28;20394;-85
2022/01/24 05:40:30;;;;;;;;;;;3.70;99.90;;;;;;5118944;28;19927;-85
2022/01/24 05:42:57;;;;;;;;;;;3.70;99.90;;;;;;5118919;28;19923;-85
2022/01/24 05:45:24;;;;;;;;;;;3.70;99.90;;;;;;5118813;28;19967;-85
2022/01/24 05:47:51;;;;;;;;;;;4.20;99.90;;;;;;5118153;28;19988;-86
2022/01/24 05:50:18;;;;;;;;;;;3.70;99.90;;;;;;5118819;28;19974;-85
2022/01/24 05:52:44;;;;;;;;;;;3.70;99.90;;;;;;5118723;28;19971;-85
2022/01/24 05:55:11;;;;;;;;;;;3.50;99.90;;;;;;5116473;27;20435;-85
2022/01/24 05:57:39;;;;;;;;;;;3.50;99.90;;;;;;5115116;28;20412;-85
2022/01/24 06:00:07;;;;;;;;;;;3.80;99.90;;;;;;5106240;28;20390;-85
2022/01/24 06:02:33;;;;;;;;;;;3.90;99.90;;;;;;5106017;28;20386;-85
2022/01/24 06:05:00;;;;;;;;;;;4.00;99.90;;;;;;5113892;28;19971;-86
2022/01/24 06:07:27;;;;;;;;;;;3.90;99.90;;;;;;5101722;28;19967;-85
2022/01/24 06:09:54;;;;;;;;;;;3.90;99.90;;;;;;5103858;28;20382;-85
2022/01/24 06:12:20;;;;;;;;;;;3.90;99.90;;;;;;5107364;28;20076;-85
2022/01/24 06:14:48;;;;;;;;;;;4.20;99.90;;;;;;5107157;28;19923;-85
2022/01/24 06:17:17;;;;;;;;;;;4.00;99.90;;;;;;5117503;28;20343;-85
2022/01/24 06:19:44;;;;;;;;;;;3.80;99.90;;;;;;5114869;28;19928;-85
2022/01/24 06:22:10;;;;;;;;;;;4.10;99.90;;;;;;5116985;28;19931;-85
2022/01/24 06:24:37;;;;;;;;;;;4.10;99.90;;;;;;5111497;28;19977;-85
2022/01/24 06:27:04;;;;;;;;;;;3.90;99.90;;;;;;5100770;28;19928;-85
2022/01/24 06:29:31;;;;;;;;;;;4.10;99.90;;;;;;5113900;28;19966;-85
2022/01/24 06:31:59;;;;;;;;;;;4.10;99.90;;;;;;5108624;28;19924;-85
2022/01/24 06:34:26;;;;;;;;;;;4.10;99.90;;;;;;5104861;28;19924;-85
2022/01/24 06:36:53;;;;;;;;;;;4.00;99.90;;;;;;5116021;28;19977;-85
2022/01/24 06:39:20;;;;;;;;;;;3.90;99.90;;;;;;5100786;28;20447;-85
2022/01/24 06:41:52;;;;;;;;;;;3.80;99.90;;;;;;5101845;28;19928;-85
2022/01/24 06:44:19;;;;;;;;;;;3.70;99.90;;;;;;5111835;28;19991;-85
2022/01/24 06:46:46;;;;;;;;;;;3.70;99.90;;;;;;5109875;28;19966;-85
2022/01/24 06:49:14;;;;;;;;;;;3.80;99.90;;;;;;5104775;28;19967;-85
2022/01/24 06:51:41;;;;;;;;;;;4.10;99.90;;;;;;5114242;28;19924;-85
2022/01/24 06:54:07;;;;;;;;;;;4.00;99.90;;;;;;5111251;28;20032;-85
2022/01/24 06:56:34;;;;;;;;;;;3.70;99.90;;;;;;5100678;28;19928;-85
2022/01/24 06:59:01;;;;;;;;;;;3.60;99.90;;;;;;5100682;28;19966;-85
2022/01/24 07:01:27;;;;;;;;;;;3.50;99.90;;;;;;5116426;28;20327;-85
2022/01/24 07:03:54;;;;;;;;;;;3.30;99.90;;;;;;5116632;28;19931;-85
2022/01/24 07:06:22;;;;;;;;;;;3.50;99.90;;;;;;5096303;28;19928;-85
2022/01/24 07:08:49;;;;;;;;;;;3.40;99.90;;;;;;5101183;28;19932;-85
2022/01/24 07:11:16;;;;;;;;;;;3.40;99.90;;;;;;5107426;28;19973;-85
2022/01/24 07:13:43;;;;;;;;;;;3.70;99.90;;;;;;5109988;28;19971;-85
2022/01/24 07:16:09;;;;;;;;;;;3.80;99.90;;;;;;5111375;28;20385;-85
2022/01/24 07:21:21;;;;;;;;;;;4.00;99.90;;;;;;5092244;28;19934;-85
2022/01/24 07:23:49;;;;;;;;;;;4.00;99.90;;;;;;5099799;28;20357;-86
2022/01/24 07:26:16;;;;;;;;;;;4.00;99.90;;;;;;5099934;28;20452;-85
2022/01/24 07:28:44;;;;;;;;;;;4.00;99.90;;;;;;5099778;28;19946;-86
2022/01/24 07:31:11;;;;;;;;;;;4.00;99.90;;;;;;5108698;28;19930;-86
2022/01/24 07:33:37;;;;;;;;;;;4.60;99.90;;;;;;5103547;28;19924;-85
2022/01/24 07:36:04;;;;;;;;;;;4.20;99.90;;;;;;5107827;28;20361;-85
2022/01/24 07:38:31;;;;;;;;;;;3.50;99.90;;;;;;5107825;28;20330;-86
2022/01/24 07:41:00;;;;;;;;;;;3.50;99.90;;;;;;5102174;28;20446;-85
2022/01/24 07:43:27;;;;;;;;;;;4.20;99.90;;;;;;5113824;28;20333;-85
2022/01/24 07:45:54;;;;;;;;;;;3.30;99.90;;;;;;5107945;28;19985;-85
2022/01/24 07:48:21;;;;;;;;;;;3.40;99.90;;;;;;5112317;28;19935;-85
2022/01/24 07:50:51;;;;;;;;;;;3.30;99.90;;;;;;5112601;28;19976;-85
2022/01/24 07:53:18;;;;;;;;;;;3.40;99.90;;;;;;5098675;28;19923;-84
2022/01/24 07:55:45;;;;;;;;;;;3.50;99.90;;;;;;5105724;27;19971;-85
2022/01/24 07:58:13;;;;;;;;;;;3.50;99.90;;;;;;5103297;28;20394;-85
2022/01/24 08:00:39;;;;;;;;;;;2.80;99.90;;;;;;5104672;28;19984;-84
2022/01/24 08:03:06;;;;;;;;;;;3.50;99.90;;;;;;5098752;28;19955;-85
2022/01/24 08:05:34;;;;;;;;;;;3.60;99.90;;;;;;5105386;28;19984;-84
2022/01/24 08:08:00;;;;;;;;;;;3.70;99.90;;;;;;5099743;28;19936;-85
2022/01/24 08:10:27;;;;;;;;;;;3.50;99.90;;;;;;5098815;28;19977;-86
2022/01/24 08:12:54;;;;;;;;;;;3.50;99.90;;;;;;5099784;28;19928;-85
2022/01/24 08:15:24;;;;;;;;;;;3.40;99.90;;;;;;5107507;27;19928;-85
2022/01/24 08:17:50;;;;;;;;;;;3.30;99.90;;;;;;5099563;28;19946;-84
2022/01/24 08:20:17;;;;;;;;;;;3.40;99.90;;;;;;5111321;28;19969;-85
2022/01/24 08:22:45;;;;;;;;;;;3.20;99.90;;;;;;5097099;28;19943;-85
2022/01/24 08:25:13;;;;;;;;;;;3.20;99.90;;;;;;5094890;28;19931;-85
2022/01/24 08:27:40;;;;;;;;;;;3.30;99.90;;;;;;5095616;28;19931;-84
2022/01/24 08:30:07;;;;;;;;;;;3.30;99.90;;;;;;5100450;28;19928;-85
2022/01/24 08:32:36;;;;;;;;;;;3.30;99.90;;;;;;5094803;28;19935;-84
2022/01/24 08:35:03;;;;;;;;;;;3.60;99.90;;;;;;5106030;28;20373;-84
2022/01/24 08:37:30;;;;;;;;;;;3.70;99.90;;;;;;5097488;28;19924;-84
2022/01/24 08:39:58;;;;;;;;;;;3.70;99.90;;;;;;5101085;28;19985;-85
2022/01/24 08:42:31;;;;;;;;;;;4.00;99.90;;;;;;5107581;28;20352;-86
2022/01/24 08:47:56;;;;;;;;;;;3.70;99.90;;;;;;5059628;28;19929;-85
2022/01/24 08:50:26;;;;;;;;;;;4.90;99.90;;;;;;5088585;28;19970;-85
2022/01/24 08:52:59;;;;;;;;;;;3.70;99.90;;;;;;5106854;28;20350;-84
2022/01/24 08:55:26;;;;;;;;;;;4.00;99.90;;;;;;5100486;28;19928;-87
2022/01/24 08:57:53;;;;;;;;;;;3.80;99.90;;;;;;5066268;28;19969;-84
2022/01/24 09:00:20;;;;;;;;;;;3.80;99.90;;;;;;5094642;28;19939;-84
2022/01/24 09:02:47;;;;;;;;;;;3.90;99.90;;;;;;5084472;28;19963;-86
2022/01/24 09:05:17;;;;;;;;;;;3.70;99.90;;;;;;5098842;28;19977;-86
2022/01/24 09:07:44;;;;;;;;;;;3.90;99.90;;;;;;5093400;28;19978;-86
2022/01/24 09:10:12;;;;;;;;;;;3.90;99.90;;;;;;5100695;28;20011;-84
2022/01/24 09:12:39;;;;;;;;;;;3.80;99.90;;;;;;5094864;28;20750;-83
2022/01/24 09:15:06;;;;;;;;;;;3.70;99.90;;;;;;5086131;28;19924;-84
2022/01/24 09:17:33;;;;;;;;;;;4.30;99.90;;;;;;5066462;28;19959;-85
2022/01/24 09:20:00;;;;;;;;;;;3.70;99.90;;;;;;5054587;28;21348;-83
2022/01/24 09:22:28;;;;;;;;;;;4.00;99.90;;;;;;5055001;28;20030;-84
2022/01/24 09:24:55;;;;;;;;;;;3.70;99.90;;;;;;5086988;28;19977;-87
2022/01/24 09:27:22;;;;;;;;;;;3.30;99.90;;;;;;5096613;28;20385;-89
2022/01/24 09:29:48;;;;;;;;;;;3.60;99.90;;;;;;5097513;28;19951;-86
2022/01/24 09:32:15;;;;;;;;;;;3.50;99.90;;;;;;5095033;28;19936;-86
2022/01/24 09:34:43;;;;;;;;;;;3.60;99.90;;;;;;5097080;28;19959;-88
2022/01/24 09:37:10;;;;;;;;;;;3.50;99.90;;;;;;5074522;28;19924;-83
2022/01/24 09:39:38;;;;;;;;;;;3.50;99.90;;;;;;5096680;28;20378;-84
2022/01/24 09:42:06;;;;;;;;;;;3.70;99.90;;;;;;5093368;28;19928;-85
2022/01/24 09:44:33;;;;;;;;;;;3.80;99.90;;;;;;5097121;28;19924;-84
2022/01/24 09:47:00;;;;;;;;;;;3.80;99.90;;;;;;5094158;28;19936;-86
2022/01/24 09:49:27;;;;;;;;;;;3.40;99.90;;;;;;5074384;28;20081;-86
2022/01/24 09:51:54;;;;;;;;;;;3.70;99.90;;;;;;5062183;28;21407;-87
2022/01/24 09:54:22;;;;;;;;;;;3.80;99.90;;;;;;5092583;28;19971;-86
2022/01/24 09:56:50;;;;;;;;;;;2.10;99.90;;;;;;5093395;28;20072;-84
2022/01/24 09:59:16;;;;;;;;;;;4.30;99.90;;;;;;5091369;28;19925;-86
2022/01/24 10:01:43;;;;;;;;;;;3.90;99.90;;;;;;5107897;28;19924;-85
2022/01/24 10:04:11;;;;;;;;;;;4.00;99.90;;;;;;5109267;28;19982;-85
2022/01/24 10:07:01;;;;;;;;;;;3.80;99.90;;;;;;5096850;28;19923;-86
2022/01/24 10:09:29;;;;;;;;;;;3.70;99.90;;;;;;5100952;28;19971;-85
2022/01/24 10:12:13;;;;;;;;;;;4.30;99.90;;;;;;5100450;28;19967;-87
2022/01/24 10:17:26;;;;;;;;;;;4.20;99.90;;;;;;5099340;27;20069;-87
2022/01/24 10:19:53;;;;;;;;;;;4.10;99.90;;;;;;5096396;27;20441;-86
2022/01/24 10:22:21;;;;;;;;;;;4.00;99.90;;;;;;5103575;27;20395;-85
2022/01/24 10:24:51;;;;;;;;;;;4.20;99.90;;;;;;5104398;27;19928;-86
2022/01/24 10:27:21;;;;;;;;;;;4.70;99.90;;;;;;5101484;28;20401;-85
2022/01/24 10:29:50;;;;;;;;;;;3.80;99.90;;;;;;5096502;27;20024;-85
2022/01/24 10:32:37;;;;;;;;;;;3.90;99.90;;;;;;5094682;28;19939;-85
2022/01/24 10:35:21;;;;;;;;;;;4.90;99.90;;;;;;5071484;27;19931;-86
2022/01/24 10:37:51;;;;;;;;;;;4.00;99.90;;;;;;5069673;28;19924;-85
2022/01/24 10:40:30;;;;;;;;;;;4.40;99.90;;;;;;5101771;28;19931;-85
2022/01/24 10:43:15;;;;;;;;;;;3.60;99.90;;;;;;5107227;28;19976;-84
2022/01/24 10:45:43;;;;;;;;;;;2.30;99.90;;;;;;5057771;28;19931;-85
2022/01/24 10:48:10;;;;;;;;;;;5.30;99.90;;;;;;5109056;28;19987;-86
2022/01/24 10:50:37;;;;;;;;;;;4.10;99.90;;;;;;5105077;28;19932;-86
2022/01/24 10:53:10;;;;;;;;;;;4.10;99.90;;;;;;5119073;28;19955;-89
2022/01/24 10:55:41;;;;;;;;;;;3.80;99.90;;;;;;5112883;28;19932;-89
2022/01/24 10:58:13;;;;;;;;;;;4.00;99.90;;;;;;5115413;27;19928;-89
2022/01/24 11:00:41;;;;;;;;;;;4.50;99.90;;;;;;5104028;28;19924;-91
2022/01/24 11:03:08;;;;;;;;;;;3.90;99.90;;;;;;5111208;27;19935;-89
2022/01/24 11:05:36;;;;;;;;;;;4.10;99.90;;;;;;5108213;27;19931;-90
2022/01/24 11:08:04;;;;;;;;;;;4.40;99.90;;;;;;5111866;28;19924;-91
2022/01/24 11:10:32;;;;;;;;;;;4.40;99.90;;;;;;5085603;22;19971;-84
2022/01/24 11:12:59;;;;;;;;;;;4.30;99.90;;;;;;5024422;28;19924;-85
2022/01/24 11:15:28;;;;;;;;;;;3.90;99.90;;;;;;5027233;28;19936;-87
2022/01/24 11:17:55;;;;;;;;;;;4.30;99.90;;;;;;5021943;28;19959;-86
2022/01/24 11:20:29;;;;;;;;;;;4.30;99.90;;;;;;5028289;28;19929;-86
2022/01/24 11:23:00;;;;;;;;;;;4.40;99.90;;;;;;5020106;28;19977;-84
2022/01/24 11:25:28;;;;;;;;;;;4.30;99.90;;;;;;5025608;28;19941;-85
2022/01/24 11:27:55;;;;;;;;;;;4.40;99.90;;;;;;5027031;28;20043;-89
2022/01/24 11:30:23;;;;;;;;;;;4.20;99.90;;;;;;5030239;28;19971;-86
2022/01/24 11:32:54;;;;;;;;;;;4.30;99.90;;;;;;5029529;28;19929;-86
2022/01/24 11:35:31;;;;;;;;;;;4.20;99.90;;;;;;5028151;28;20580;-85
2022/01/24 11:37:58;;;;;;;;;;;4.20;99.90;;;;;;5032039;28;19925;-86
2022/01/24 11:40:25;;;;;;;;;;;4.40;99.90;;;;;;5024096;28;19933;-85
2022/01/24 11:42:54;;;;;;;;;;;4.40;99.90;;;;;;5027724;28;20632;-85
2022/01/24 11:45:34;;;;;;;;;;;4.20;99.90;;;;;;5029556;28;19972;-85
2022/01/24 11:48:21;;;;;;;;;;;4.70;99.90;;;;;;5031939;28;19984;-87
2022/01/24 11:50:58;;;;;;;;;;;4.40;99.90;;;;;;5030571;28;19962;-86
2022/01/24 11:53:27;;;;;;;;;;;4.10;99.90;;;;;;5032997;28;19932;-85
2022/01/24 11:55:55;;;;;;;;;;;4.20;99.90;;;;;;5022082;28;19929;-87
2022/01/24 11:58:23;;;;;;;;;;;4.70;99.90;;;;;;5027633;28;19999;-85
2022/01/24 12:00:52;;;;;;;;;;;4.40;99.90;;;;;;5032872;28;19935;-86
2022/01/24 12:03:23;;;;;;;;;;;4.80;99.90;;;;;;5032477;28;19971;-86
2022/01/24 12:05:53;;;;;;;;;;;4.50;99.90;;;;;;5024186;28;19959;-86
2022/01/24 12:08:28;;;;;;;;;;;4.50;99.90;;;;;;5026493;28;20324;-86
2022/01/24 12:10:58;;;;;;;;;;;4.50;99.90;;;;;;5029842;28;19925;-86
2022/01/24 12:13:28;;;;;;;;;;;4.50;99.90;;;;;;5020993;28;20004;-86
2022/01/24 12:15:56;;;;;;;;;;;4.60;99.90;;;;;;5022929;28;19925;-86
2022/01/24 12:18:43;;;;;;;;;;;4.50;99.90;;;;;;5019017;28;19980;-86
2022/01/24 12:21:11;;;;;;;;;;;4.50;99.90;;;;;;5022690;28;19925;-87
2022/01/24 12:23:40;;;;;;;;;;;6.00;99.90;;;;;;5021455;28;20324;-85
2022/01/24 12:26:08;;;;;;;;;;;4.80;99.90;;;;;;5017354;28;19926;-87
2022/01/24 12:28:45;;;;;;;;;;;5.00;99.90;;;;;;5027405;28;19940;-85
2022/01/24 12:31:19;;;;;;;;;;;4.80;99.90;;;;;;5028318;28;19933;-85
2022/01/24 12:33:59;;;;;;;;;;;4.80;99.90;;;;;;5030327;28;19987;-85
2022/01/24 12:36:46;;;;;;;;;;;5.00;99.90;;;;;;5021476;28;19929;-85
2022/01/24 12:39:15;;;;;;;;;;;4.90;99.90;;;;;;5031743;28;20011;-86
2022/01/24 12:41:46;;;;;;;;;;;4.90;99.90;;;;;;5026631;28;20530;-85
2022/01/24 12:46:18;;;;;;;;;;;5.00;99.90;;;;;;5031140;28;20021;-86
2022/01/24 12:46:59;;;;;;;;;;;5.00;99.90;;;;;;5025893;28;20366;-86
2022/01/24 12:49:29;;;;;;;;;;;4.90;99.90;;;;;;5031512;28;19929;-86
2022/01/24 12:51:56;;;;;;;;;;;5.00;99.90;;;;;;5032849;28;19925;-85
2022/01/24 12:54:28;;;;;;;;;;;5.30;99.90;;;;;;5031659;28;20055;-86
2022/01/24 12:56:58;;;;;;;;;;;3.20;99.90;;;;;;5021330;28;19952;-85
2022/01/24 12:59:25;;;;;;;;;;;4.90;99.90;;;;;;5029449;28;19964;-85
2022/01/24 13:01:55;;;;;;;;;;;5.00;99.90;;;;;;5019183;28;19929;-85
2022/01/24 13:04:30;;;;;;;;;;;5.00;99.90;;;;;;5031218;28;20398;-85
2022/01/24 13:06:59;;;;;;;;;;;5.00;99.90;;;;;;5031557;28;19932;-85
2022/01/24 13:09:26;;;;;;;;;;;5.10;99.90;;;;;;5031882;28;20406;-84
2022/01/24 13:11:54;;;;;;;;;;;4.90;99.90;;;;;;5027685;28;20379;-84
2022/01/24 13:14:26;;;;;;;;;;;4.70;99.90;;;;;;5036811;28;19933;-87
2022/01/24 13:22:31;;;;;;;;;;;5.00;99.90;;;;;;5025523;28;20018;-86
2022/01/24 13:25:02;;;;;;;;;;;5.10;99.90;;;;;;5029129;28;20370;-86
2022/01/24 13:27:36;;;;;;;;;;;5.00;99.90;;;;;;5027183;28;19925;-85
2022/01/24 13:30:04;;;;;;;;;;;4.90;99.90;;;;;;5017509;28;20480;-88
2022/01/24 13:32:50;;;;;;;;;;;4.60;99.90;;;;;;5029146;28;20307;-87
2022/01/24 13:35:18;;;;;;;;;;;4.50;99.90;;;;;;4981302;28;19932;-89
2022/01/24 13:37:46;;;;;;;;;;;4.70;99.90;;;;;;4985676;28;19925;-87
2022/01/24 13:40:13;;;;;;;;;;;5.00;99.90;;;;;;5011958;28;19960;-86
2022/01/24 13:42:40;;;;;;;;;;;5.10;99.90;;;;;;5010308;28;19987;-86
2022/01/24 13:45:07;;;;;;;;;;;4.80;99.90;;;;;;5022502;28;20443;-87
2022/01/24 13:47:34;;;;;;;;;;;4.70;99.90;;;;;;4988001;28;21083;-87
2022/01/24 13:50:03;;;;;;;;;;;4.80;99.90;;;;;;5023560;28;20410;-88
2022/01/24 13:52:30;;;;;;;;;;;4.80;99.90;;;;;;5020226;28;19934;-87
2022/01/24 13:55:12;;;;;;;;;;;4.80;99.90;;;;;;5025040;28;19925;-88
2022/01/24 13:57:45;;;;;;;;;;;4.90;99.90;;;;;;5028750;28;19925;-87
2022/01/24 14:00:12;;;;;;;;;;;4.70;99.90;;;;;;5027780;28;19978;-87
2022/01/24 14:02:39;;;;;;;;;;;5.00;99.90;;;;;;5029330;28;19925;-87
2022/01/24 14:05:07;;;;;;;;;;;4.90;99.90;;;;;;5031890;28;20291;-87
2022/01/24 14:07:34;;;;;;;;;;;4.90;99.90;;;;;;5033204;28;19925;-87
2022/01/24 14:10:02;;;;;;;;;;;4.90;99.90;;;;;;5027916;28;20326;-88
2022/01/24 14:12:35;;;;;;;;;;;5.00;99.90;;;;;;5033908;28;19925;-87
2022/01/24 14:15:08;;;;;;;;;;;5.00;99.90;;;;;;5032648;28;19925;-87
2022/01/24 14:17:46;;;;;;;;;;;4.70;99.90;;;;;;5009272;28;20120;-86
2022/01/24 14:20:18;;;;;;;;;;;4.80;99.90;;;;;;4995842;28;19925;-87
2022/01/24 14:22:46;;;;;;;;;;;4.80;99.90;;;;;;4998563;28;19925;-86
2022/01/24 14:25:15;;;;;;;;;;;4.90;99.90;;;;;;4995617;28;20328;-86
2022/01/24 14:27:43;;;;;;;;;;;5.20;99.90;;;;;;4996814;28;19944;-85
2022/01/24 14:30:13;;;;;;;;;;;4.90;99.90;;;;;;5020450;28;19944;-85
2022/01/24 14:32:59;;;;;;;;;;;4.80;99.90;;;;;;5013071;28;19932;-85
2022/01/24 14:35:26;;;;;;;;;;;4.90;99.90;;;;;;5025576;28;20343;-85
2022/01/24 14:37:54;;;;;;;;;;;5.50;99.90;;;;;;5008089;28;19925;-86
2022/01/24 14:40:34;;;;;;;;;;;4.70;99.90;;;;;;5015033;28;19932;-86
2022/01/24 14:45:43;;;;;;;;;;;4.70;99.90;;;;;;5021014;28;19925;-86
2022/01/24 14:48:10;;;;;;;;;;;5.00;99.90;;;;;;5025565;28;19929;-84
2022/01/24 14:50:37;;;;;;;;;;;4.20;99.90;;;;;;5023875;28;19991;-83
2022/01/24 14:53:07;;;;;;;;;;;4.50;99.90;;;;;;5024452;28;20363;-85
2022/01/24 14:55:34;;;;;;;;;;;4.50;99.90;;;;;;5008074;28;19944;-88
2022/01/24 14:58:01;;;;;;;;;;;4.80;99.90;;;;;;5020402;28;20383;-84
2022/01/24 15:00:28;;;;;;;;;;;4.90;99.90;;;;;;5015989;28;19969;-85
2022/01/24 15:02:57;;;;;;;;;;;4.70;99.90;;;;;;5027090;28;20306;-86
2022/01/24 15:05:24;;;;;;;;;;;4.60;99.90;;;;;;5026734;28;20379;-85
2022/01/24 15:07:50;;;;;;;;;;;4.60;99.90;;;;;;5021355;28;20020;-85
2022/01/24 15:10:17;;;;;;;;;;;4.60;99.90;;;;;;5013255;28;19937;-85
2022/01/24 15:12:49;;;;;;;;;;;4.50;99.90;;;;;;5024764;28;19941;-86
2022/01/24 15:15:18;;;;;;;;;;;4.90;99.90;;;;;;5022506;28;19972;-86
2022/01/24 15:23:56;;;;;;;;;;;4.90;99.90;;;;;;5030084;28;20038;-87
2022/01/24 15:26:05;;;;;;;;;;;4.70;99.90;;;;;;5015821;28;19940;-86
2022/01/24 15:28:34;;;;;;;;;;;4.80;99.90;;;;;;5009679;28;19939;-86
2022/01/24 15:31:01;;;;;;;;;;;4.40;99.90;;;;;;5025415;28;19929;-87
2022/01/24 15:33:27;;;;;;;;;;;4.90;99.90;;;;;;5019140;28;19956;-87
2022/01/24 15:35:56;;;;;;;;;;;4.60;99.90;;;;;;5019211;28;19933;-87
2022/01/24 15:38:24;;;;;;;;;;;4.60;99.90;;;;;;5026246;28;19936;-86
2022/01/24 15:40:51;;;;;;;;;;;4.80;99.90;;;;;;5021189;28;19937;-88
2022/01/24 15:43:41;;;;;;;;;;;5.60;99.90;;;;;;5021384;28;19977;-89
2022/01/24 15:48:54;;;;;;;;;;;6.80;99.90;;;;;;4998103;28;19929;-87
2022/01/24 15:51:25;;;;;;;;;;;5.70;99.90;;;;;;4998501;28;19944;-86
2022/01/24 15:53:51;;;;;;;;;;;5.60;99.90;;;;;;4973030;28;21308;-84
2022/01/24 15:57:39;;;;;;;;;;;5.70;99.90;;;;;;5022725;28;19940;-84
2022/01/24 15:59:06;;;;;;;;;;;5.60;99.90;;;;;;5019614;28;19929;-84
2022/01/24 16:01:32;;;;;;;;;;;5.50;99.90;;;;;;5018884;28;19933;-83
2022/01/24 16:04:01;;;;;;;;;;;5.40;99.90;;;;;;5020677;28;19937;-83
2022/01/24 16:06:31;;;;;;;;;;;5.20;99.90;;;;;;5022220;28;19975;-85